Time;durP1;ratioP1;P1;durP2;ratioP2;P2;SDS_P1;SDS_P2;PMS_P1;PMS_P2;Temp;Humidity;BMP_temperature;BMP_pressure;BME280_temperature;BME280_humidity;BME280_pressure;Samples;Min_cycle;Max_cycle;Signal;HPM_P1;HPM_P2
2024/01/30 00:02:00;;;;;;;0.80;0.40;;;;;;;-143.84;86.37;45262.34;5068513;28;20439;-57
2024/01/30 00:04:27;;;;;;;0.80;0.50;;;;;;;-143.84;86.68;45283.28;5088311;28;20481;-57
2024/01/30 00:06:56;;;;;;;0.80;0.70;;;;;;;-143.84;86.76;45269.97;5088989;28;20994;-57
2024/01/30 00:09:23;;;;;;;0.80;0.40;;;;;;;-143.84;86.69;45254.72;5091177;28;20454;-57
2024/01/30 00:11:50;;;;;;;0.80;0.40;;;;;;;-143.84;87.07;45241.41;5092355;28;20507;-58
2024/01/30 00:14:18;;;;;;;1.13;1.03;;;;;;;-143.84;86.99;45285.19;5092237;28;20443;-57
2024/01/30 00:16:45;;;;;;;0.90;0.70;;;;;;;-143.84;87.16;45266.16;5092581;28;20454;-57
2024/01/30 00:19:13;;;;;;;1.03;0.93;;;;;;;-143.84;87.57;45252.81;5092737;28;20440;-57
2024/01/30 00:21:40;;;;;;;0.80;0.60;;;;;;;-143.84;87.80;45290.91;5092521;28;20447;-57
2024/01/30 00:24:08;;;;;;;0.80;0.50;;;;;;;-143.84;87.29;45285.19;5092329;28;20446;-57
2024/01/30 00:26:35;;;;;;;0.80;0.40;;;;;;;-143.84;87.65;45256.63;5092264;28;20983;-58
2024/01/30 00:29:03;;;;;;;1.13;1.03;;;;;;;-143.84;87.88;45287.09;5092168;28;20463;-57
2024/01/30 00:31:30;;;;;;;0.80;0.40;;;;;;;-143.84;87.64;45269.97;5092028;28;20850;-57
2024/01/30 00:33:57;;;;;;;0.90;0.70;;;;;;;-143.84;88.07;45281.38;5092083;28;20816;-57
2024/01/30 00:36:24;;;;;;;2.13;2.03;;;;;;;-143.84;87.79;45262.34;5091603;28;20443;-57
2024/01/30 00:38:51;;;;;;;0.80;0.67;;;;;;;-143.84;88.30;45273.78;5091737;28;20991;-57
2024/01/30 00:41:20;;;;;;;1.90;1.00;;;;;;;-143.84;88.99;45279.47;5091466;28;20480;-57
2024/01/30 00:43:47;;;;;;;1.20;0.97;;;;;;;-143.84;89.09;45250.91;5091762;28;20505;-57
2024/01/30 00:46:14;;;;;;;1.10;0.93;;;;;;;-143.84;88.56;45273.78;5091805;28;20882;-57
2024/01/30 00:48:41;;;;;;;1.07;0.97;;;;;;;-143.84;89.13;45269.97;5092135;28;20433;-57
2024/01/30 00:51:08;;;;;;;1.57;1.20;;;;;;;-143.84;88.57;45289.00;5091643;28;20505;-57
2024/01/30 00:53:35;;;;;;;1.67;1.57;;;;;;;-143.84;88.58;45277.56;5091885;28;20493;-57
2024/01/30 00:56:03;;;;;;;0.80;0.53;;;;;;;-143.84;88.41;45260.44;5091681;28;20448;-57
2024/01/30 00:58:31;;;;;;;0.80;0.40;;;;;;;-143.84;89.04;45283.28;5091562;28;20500;-57
2024/01/30 01:00:59;;;;;;;1.33;1.23;;;;;;;-143.84;88.99;45264.25;5091569;28;20865;-57
2024/01/30 01:03:26;;;;;;;0.83;0.63;;;;;;;-143.84;89.18;45292.81;5091824;28;20509;-58
2024/01/30 01:05:53;;;;;;;0.80;0.70;;;;;;;-143.84;89.42;45289.00;5091656;28;20431;-57
2024/01/30 01:08:20;;;;;;;1.07;0.97;;;;;;;-143.84;88.92;45245.19;5091316;28;20443;-57
2024/01/30 01:10:47;;;;;;;1.57;1.40;;;;;;;-143.84;89.01;45283.28;5091311;28;20450;-57
2024/01/30 01:13:14;;;;;;;0.80;0.50;;;;;;;-143.84;89.05;45275.66;5091449;28;20561;-57
2024/01/30 01:15:43;;;;;;;1.20;0.77;;;;;;;-143.84;89.64;45260.44;5091847;28;20899;-57
2024/01/30 01:18:10;;;;;;;5.50;1.70;;;;;;;-143.84;89.38;45260.44;5091294;28;20444;-57
2024/01/30 01:20:38;;;;;;;1.57;1.47;;;;;;;-143.84;89.30;45281.38;5090860;28;20492;-57
2024/01/30 01:23:05;;;;;;;0.90;0.73;;;;;;;-143.84;89.94;45289.00;5091386;28;20451;-57
2024/01/30 01:25:32;;;;;;;3.20;2.63;;;;;;;-143.84;90.09;45275.66;5091164;28;20440;-57
2024/01/30 01:28:01;;;;;;;0.80;0.67;;;;;;;-143.84;89.58;45271.88;5091360;28;20443;-57
2024/01/30 01:30:29;;;;;;;0.90;0.70;;;;;;;-143.84;89.35;45277.56;5091264;28;20936;-58
2024/01/30 01:33:00;;;;;;;0.80;0.60;;;;;;;-143.84;89.47;45281.38;5090707;28;20487;-58
2024/01/30 01:35:28;;;;;;;0.80;0.60;;;;;;;-143.84;89.72;45262.34;5090916;28;20487;-57
2024/01/30 01:37:56;;;;;;;1.73;1.63;;;;;;;-143.84;89.75;45273.78;5090721;28;20450;-57
2024/01/30 01:40:24;;;;;;;2.40;2.10;;;;;;;-143.84;89.71;45264.25;5090631;28;20444;-57
2024/01/30 01:42:52;;;;;;;1.37;1.27;;;;;;;-143.84;89.60;45254.72;5091114;28;20443;-57
2024/01/30 01:45:20;;;;;;;1.30;1.03;;;;;;;-143.84;89.87;45281.38;5090986;28;20479;-57
2024/01/30 01:47:49;;;;;;;0.80;0.40;;;;;;;-143.84;89.38;45273.78;5090946;28;20443;-57
2024/01/30 01:50:19;;;;;;;0.80;0.50;;;;;;;-143.84;89.54;45273.78;5090551;28;20435;-57
2024/01/30 01:52:48;;;;;;;0.80;0.40;;;;;;;-143.84;89.35;45281.38;5090487;28;20483;-57
2024/01/30 01:55:17;;;;;;;1.60;0.90;;;;;;;-143.84;89.16;45264.25;5090816;28;20496;-57
2024/01/30 01:57:44;;;;;;;1.23;1.13;;;;;;;-143.84;89.20;45266.16;5090880;28;20464;-58
2024/01/30 02:00:13;;;;;;;0.80;0.40;;;;;;;-143.84;89.43;45241.41;5090924;28;20565;-57
2024/01/30 02:02:40;;;;;;;0.80;0.60;;;;;;;-143.84;89.10;45264.25;5090585;28;21380;-57
2024/01/30 02:05:09;;;;;;;1.20;0.70;;;;;;;-143.84;88.94;45254.72;5090418;28;20501;-57
2024/01/30 02:07:38;;;;;;;0.80;0.60;;;;;;;-143.84;89.39;45287.09;5090299;28;20447;-57
2024/01/30 02:10:05;;;;;;;1.63;1.53;;;;;;;-143.84;88.96;45264.25;5089996;28;20443;-57
2024/01/30 02:12:33;;;;;;;1.20;1.10;;;;;;;-143.84;89.53;45277.56;5090121;28;20623;-57
2024/01/30 02:15:00;;;;;;;2.30;1.70;;;;;;;-143.84;89.67;45252.81;5090192;28;20861;-57
2024/01/30 02:17:27;;;;;;;0.80;0.40;;;;;;;-143.84;89.48;45283.28;5090365;28;20435;-57
2024/01/30 02:19:54;;;;;;;0.90;0.77;;;;;;;-143.84;89.67;45250.91;5090086;28;20440;-57
2024/01/30 02:22:23;;;;;;;0.80;0.50;;;;;;;-143.84;89.27;45273.78;5090316;28;20432;-57
2024/01/30 02:24:50;;;;;;;4.30;1.37;;;;;;;-143.84;89.07;45283.28;5089941;28;20447;-58
2024/01/30 02:27:17;;;;;;;0.80;0.60;;;;;;;-143.84;89.24;45271.88;5090036;28;20840;-57
2024/01/30 02:29:44;;;;;;;1.03;0.93;;;;;;;-143.84;89.27;45289.00;5089889;28;20431;-57
2024/01/30 02:32:11;;;;;;;0.80;0.40;;;;;;;-143.84;89.64;45252.81;5088701;28;20538;-58
2024/01/30 02:34:39;;;;;;;1.40;0.70;;;;;;;-143.84;89.38;45281.38;5090109;28;20443;-58
2024/01/30 02:37:06;;;;;;;1.00;0.60;;;;;;;-143.84;89.34;45268.06;5089905;28;20493;-57
2024/01/30 02:39:34;;;;;;;0.97;0.70;;;;;;;-143.84;90.07;45260.44;5089636;28;20501;-58
2024/01/30 02:42:01;;;;;;;1.10;1.00;;;;;;;-143.84;89.79;45298.53;5089684;28;20496;-58
2024/01/30 02:44:28;;;;;;;0.70;0.40;;;;;;;-143.84;90.52;45239.50;5089861;28;20516;-57
2024/01/30 02:46:55;;;;;;;1.43;1.07;;;;;;;-143.84;89.97;45256.63;5089454;28;20447;-57
2024/01/30 02:49:22;;;;;;;0.80;0.50;;;;;;;-143.84;90.45;45308.03;5089770;28;20447;-57
2024/01/30 02:51:50;;;;;;;1.10;0.77;;;;;;;-143.84;90.15;45266.16;5089612;28;20486;-58
2024/01/30 02:54:17;;;;;;;1.77;0.80;;;;;;;-143.84;90.98;45292.81;5089591;28;20530;-57
2024/01/30 02:56:46;;;;;;;1.17;1.07;;;;;;;-143.84;90.36;45285.19;5089214;28;20440;-58
2024/01/30 02:59:13;;;;;;;1.10;1.00;;;;;;;-143.84;89.73;45279.47;5089428;28;20517;-57
2024/01/30 03:01:46;;;;;;;1.47;1.20;;;;;;;-143.84;89.86;45268.06;5089388;28;20965;-57
2024/01/30 03:04:13;;;;;;;0.80;0.50;;;;;;;-143.84;89.63;45285.19;5089454;28;20428;-57
2024/01/30 03:06:45;;;;;;;1.83;1.40;;;;;;;-143.84;89.31;45268.06;5089290;28;20998;-57
2024/01/30 03:09:13;;;;;;;1.03;0.93;;;;;;;-143.84;90.25;45256.63;5089400;28;21016;-57
2024/01/30 03:11:40;;;;;;;0.80;0.70;;;;;;;-143.84;89.87;45262.34;5089048;28;20490;-57
2024/01/30 03:14:10;;;;;;;0.80;0.50;;;;;;;-143.84;90.29;45273.78;5089091;28;20458;-57
2024/01/30 03:16:38;;;;;;;1.63;1.53;;;;;;;-143.84;90.13;45254.72;5089102;28;20459;-57
2024/01/30 03:19:07;;;;;;;1.37;1.27;;;;;;;-143.84;90.39;45273.78;5089247;28;20436;-57
2024/01/30 03:21:34;;;;;;;1.43;0.87;;;;;;;-143.84;91.08;45273.78;5088918;28;20444;-57
2024/01/30 03:24:01;;;;;;;0.80;0.60;;;;;;;-143.84;91.43;45258.53;5089009;28;20493;-57
2024/01/30 03:26:28;;;;;;;1.00;0.73;;;;;;;-143.84;91.43;45277.56;5088888;28;20444;-57
2024/01/30 03:28:55;;;;;;;0.90;0.70;;;;;;;-143.84;92.06;45281.38;5088904;28;20440;-57
2024/01/30 03:31:24;;;;;;;0.80;0.77;;;;;;;-143.84;92.13;45264.25;5088892;28;20436;-57
2024/01/30 03:33:51;;;;;;;1.20;0.67;;;;;;;-143.84;92.42;45277.56;5088274;28;20479;-57
2024/01/30 03:36:18;;;;;;;0.90;0.80;;;;;;;-143.84;92.16;45275.66;5077387;28;20501;-57
2024/01/30 03:38:45;;;;;;;0.80;0.47;;;;;;;-143.84;92.31;45285.19;5088926;28;20440;-57
2024/01/30 03:41:12;;;;;;;0.97;0.87;;;;;;;-143.84;91.78;45279.47;5073636;28;20934;-57
2024/01/30 03:43:39;;;;;;;1.00;0.90;;;;;;;-143.84;91.94;45279.47;5070483;28;20445;-57
2024/01/30 03:46:07;;;;;;;0.80;0.60;;;;;;;-143.84;91.31;45277.56;5072763;28;20440;-57
2024/01/30 03:48:35;;;;;;;1.20;1.10;;;;;;;-143.84;90.74;45256.63;5072760;28;20441;-57
2024/01/30 03:51:02;;;;;;;0.80;0.73;;;;;;;-143.84;90.55;45269.97;5072514;28;20458;-57
2024/01/30 03:53:29;;;;;;;1.00;0.80;;;;;;;-143.84;91.03;45273.78;5088185;28;21052;-57
2024/01/30 03:55:56;;;;;;;1.20;1.10;;;;;;;-143.84;90.98;45260.44;5092297;28;20446;-57
2024/01/30 03:58:23;;;;;;;0.80;0.50;;;;;;;-143.84;91.60;45285.19;5092411;28;20500;-57
2024/01/30 04:00:50;;;;;;;1.30;1.20;;;;;;;-143.84;91.13;45292.81;5092525;28;20468;-57
2024/01/30 04:03:18;;;;;;;1.63;1.53;;;;;;;-143.84;91.00;45262.34;5092798;28;20436;-57
2024/01/30 04:05:46;;;;;;;0.90;0.73;;;;;;;-143.84;91.65;45266.16;5088462;28;20439;-57
2024/01/30 04:08:13;;;;;;;0.80;0.50;;;;;;;-143.84;91.04;45311.84;5088957;28;20497;-57
2024/01/30 04:10:41;;;;;;;0.80;0.40;;;;;;;-143.84;90.88;45258.53;5077193;28;20818;-57
2024/01/30 04:13:08;;;;;;;0.80;0.40;;;;;;;-143.84;90.78;45258.53;5073085;28;20576;-57
2024/01/30 04:15:36;;;;;;;0.80;0.73;;;;;;;-143.84;90.89;45260.44;5083932;28;20514;-57
2024/01/30 04:18:03;;;;;;;2.23;2.13;;;;;;;-143.84;90.37;45262.34;5080172;28;20467;-58
2024/01/30 04:20:30;;;;;;;1.90;1.80;;;;;;;-143.84;90.41;45260.44;5083028;28;20505;-57
2024/01/30 04:22:59;;;;;;;0.80;0.50;;;;;;;-143.84;90.46;45277.56;5086442;28;20947;-57
2024/01/30 04:25:26;;;;;;;0.80;0.50;;;;;;;-143.84;91.07;45254.72;5083400;28;20448;-57
2024/01/30 04:27:53;;;;;;;0.80;0.50;;;;;;;-143.84;90.30;45289.00;5087684;28;20436;-57
2024/01/30 04:30:20;;;;;;;0.80;0.80;;;;;;;-143.84;90.48;45269.97;5082040;28;20443;-57
2024/01/30 04:32:47;;;;;;;0.80;0.60;;;;;;;-143.84;90.38;45269.97;5087508;28;21372;-57
2024/01/30 04:35:14;;;;;;;0.93;0.83;;;;;;;-143.84;90.22;45289.00;5080246;28;20496;-57
2024/01/30 04:37:42;;;;;;;0.80;0.40;;;;;;;-143.84;90.18;45273.78;5081398;28;20451;-57
2024/01/30 04:40:11;;;;;;;0.80;0.50;;;;;;;-143.84;90.72;45275.66;5076570;28;20444;-57
2024/01/30 04:42:38;;;;;;;0.80;0.50;;;;;;;-143.84;90.28;45277.56;5085166;28;20444;-57
2024/01/30 04:45:07;;;;;;;1.10;0.90;;;;;;;-143.84;89.64;45264.25;5085001;28;20452;-57
2024/01/30 04:47:34;;;;;;;0.80;0.50;;;;;;;-143.84;89.87;45239.50;5071735;28;20458;-57
2024/01/30 04:50:04;;;;;;;1.60;1.00;;;;;;;-143.84;89.52;45252.81;5071535;28;20452;-57
2024/01/30 04:52:31;;;;;;;0.80;0.50;;;;;;;-143.84;89.70;45268.06;5071450;28;20494;-57
2024/01/30 04:54:58;;;;;;;0.80;0.50;;;;;;;-143.84;89.65;45229.97;5086685;28;20440;-57
2024/01/30 04:57:27;;;;;;;0.80;0.40;;;;;;;-143.84;89.53;45262.34;5091822;28;20439;-57
2024/01/30 04:59:54;;;;;;;1.00;0.90;;;;;;;-143.84;89.39;45271.88;5091738;28;20529;-57
2024/01/30 05:02:21;;;;;;;2.50;0.80;;;;;;;-143.84;88.92;45245.19;5091651;28;20835;-57
2024/01/30 05:04:49;;;;;;;0.80;0.40;;;;;;;-143.84;89.28;45285.19;5091481;28;20435;-57
2024/01/30 05:07:16;;;;;;;0.80;0.40;;;;;;;-143.84;88.62;45269.97;5091917;28;20438;-57
2024/01/30 05:09:43;;;;;;;0.80;0.40;;;;;;;-143.84;88.36;45269.97;5091431;28;20500;-57
2024/01/30 05:12:10;;;;;;;0.80;0.50;;;;;;;-143.84;88.96;45281.38;5091151;28;20483;-57
2024/01/30 05:14:38;;;;;;;2.13;1.27;;;;;;;-143.84;88.38;45256.63;5091528;28;20444;-57
2024/01/30 05:17:05;;;;;;;0.80;0.40;;;;;;;-143.84;88.35;45266.16;5089737;28;20501;-58
2024/01/30 05:19:32;;;;;;;1.57;1.00;;;;;;;-143.84;88.65;45258.53;5091084;28;20501;-57
2024/01/30 05:22:00;;;;;;;0.80;0.53;;;;;;;-143.84;88.46;45264.25;5091729;28;20468;-57
2024/01/30 05:24:27;;;;;;;0.80;0.50;;;;;;;-143.84;88.21;45252.81;5091400;28;20774;-57
2024/01/30 05:26:54;;;;;;;0.80;0.40;;;;;;;-143.84;88.25;45289.00;5091075;28;20443;-57
2024/01/30 05:29:21;;;;;;;0.83;0.60;;;;;;;-143.84;88.89;45273.78;5080356;28;20452;-57
2024/01/30 05:31:49;;;;;;;0.93;0.80;;;;;;;-143.84;88.13;45262.34;5070942;28;20466;-58
2024/01/30 05:34:17;;;;;;;4.70;1.27;;;;;;;-143.84;88.51;45254.72;5070832;28;20484;-57
2024/01/30 05:36:44;;;;;;;0.80;0.50;;;;;;;-143.84;88.08;45283.28;5070695;28;20498;-57
2024/01/30 05:39:11;;;;;;;0.80;0.40;;;;;;;-143.84;88.22;45256.63;5070778;28;20443;-57
2024/01/30 05:41:38;;;;;;;2.60;2.40;;;;;;;-143.84;88.26;45237.59;5070767;28;20473;-57
2024/01/30 05:44:05;;;;;;;1.63;1.43;;;;;;;-143.84;88.44;45283.28;5070686;28;20440;-57
2024/01/30 05:46:33;;;;;;;1.10;0.70;;;;;;;-143.84;88.73;45262.34;5070345;28;20527;-57
2024/01/30 05:49:01;;;;;;;1.77;1.67;;;;;;;-143.84;89.01;45269.97;5070509;28;20454;-57
2024/01/30 05:51:29;;;;;;;0.80;0.60;;;;;;;-143.84;88.87;45279.47;5070407;28;20445;-57
2024/01/30 05:53:56;;;;;;;1.00;0.70;;;;;;;-143.84;88.44;45275.66;5070438;28;20486;-57
2024/01/30 05:56:23;;;;;;;1.37;1.27;;;;;;;-143.84;88.48;45264.25;5070451;28;20452;-57
2024/01/30 05:58:51;;;;;;;1.17;1.03;;;;;;;-143.84;88.29;45273.78;5070268;28;20444;-57
2024/01/30 06:01:18;;;;;;;0.90;0.77;;;;;;;-143.84;88.80;45273.78;5070433;28;20843;-57
2024/01/30 06:03:45;;;;;;;1.47;1.37;;;;;;;-143.84;88.12;45247.09;5070302;28;20510;-57
2024/01/30 06:06:14;;;;;;;0.80;0.50;;;;;;;-143.84;88.36;45281.38;5069973;28;20443;-57
2024/01/30 06:08:41;;;;;;;0.80;0.50;;;;;;;-143.84;87.90;45275.66;5070413;28;20508;-57
2024/01/30 06:11:11;;;;;;;1.87;1.77;;;;;;;-143.84;88.43;45258.53;5070024;28;20446;-57
2024/01/30 06:13:38;;;;;;;0.90;0.70;;;;;;;-143.84;88.68;45296.63;5070146;28;20992;-57
2024/01/30 06:16:06;;;;;;;0.80;0.50;;;;;;;-143.84;88.96;45290.91;5069818;28;20502;-57
2024/01/30 06:18:33;;;;;;;0.80;0.50;;;;;;;-143.84;88.90;45264.25;5070087;28;20447;-57
2024/01/30 06:21:00;;;;;;;2.10;1.93;;;;;;;-143.84;88.62;45287.09;5069927;28;20815;-57
2024/01/30 06:23:29;;;;;;;1.57;0.80;;;;;;;-143.84;88.39;45273.78;5069593;28;20440;-57
2024/01/30 06:25:56;;;;;;;0.90;0.70;;;;;;;-143.84;89.28;45254.72;5070000;28;20525;-57
2024/01/30 06:28:23;;;;;;;0.80;0.50;;;;;;;-143.84;89.41;45289.00;5069602;28;20437;-57
2024/01/30 06:30:50;;;;;;;1.00;0.63;;;;;;;-143.84;89.12;45269.97;5069752;28;20440;-57
2024/01/30 06:33:17;;;;;;;1.33;1.00;;;;;;;-143.84;88.72;45264.25;5069652;28;20974;-57
2024/01/30 06:35:45;;;;;;;0.80;0.40;;;;;;;-143.84;89.24;45277.56;5069660;28;20432;-57
2024/01/30 06:38:13;;;;;;;0.80;0.50;;;;;;;-143.84;88.39;45268.06;5069449;28;20444;-57
2024/01/30 06:40:41;;;;;;;0.97;0.87;;;;;;;-143.84;88.94;45275.66;5069767;28;20460;-57
2024/01/30 06:43:09;;;;;;;1.07;0.77;;;;;;;-143.84;88.87;45266.16;5069615;28;20984;-57
2024/01/30 06:45:37;;;;;;;0.80;0.60;;;;;;;-143.84;89.06;45260.44;5069564;28;20562;-57
2024/01/30 06:48:04;;;;;;;0.80;0.50;;;;;;;-143.84;89.41;45245.19;5069505;28;20502;-57
2024/01/30 06:50:31;;;;;;;0.80;0.40;;;;;;;-143.84;89.50;45287.09;5069285;28;20505;-57
2024/01/30 06:52:59;;;;;;;0.80;0.70;;;;;;;-143.84;89.78;45290.91;5069348;28;20480;-57
2024/01/30 06:55:26;;;;;;;0.80;0.40;;;;;;;-143.84;90.68;45281.38;5069090;28;20531;-57
2024/01/30 06:57:54;;;;;;;0.80;0.50;;;;;;;-143.84;90.15;45254.72;5069188;28;20506;-57
2024/01/30 07:00:22;;;;;;;0.80;0.50;;;;;;;-143.84;90.15;45239.50;5069149;28;20444;-57
2024/01/30 07:02:49;;;;;;;0.93;0.83;;;;;;;-143.84;89.84;45252.81;5069191;28;20445;-57
2024/01/30 07:05:17;;;;;;;1.30;1.20;;;;;;;-143.84;90.55;45247.09;5069130;28;21185;-57
2024/01/30 07:07:44;;;;;;;0.80;0.40;;;;;;;-143.84;90.48;45231.88;5069083;28;20443;-57
2024/01/30 07:10:11;;;;;;;0.80;0.50;;;;;;;-143.84;91.17;45279.47;5069087;28;21074;-57
2024/01/30 07:12:39;;;;;;;0.93;0.70;;;;;;;-143.84;90.77;45269.97;5068619;28;20533;-57
2024/01/30 07:15:09;;;;;;;3.20;1.43;;;;;;;-143.84;90.82;45269.97;5068548;28;20448;-57
2024/01/30 07:17:36;;;;;;;0.80;0.67;;;;;;;-143.84;90.03;45273.78;5068440;28;20872;-57
2024/01/30 07:20:04;;;;;;;0.80;0.40;;;;;;;-143.84;90.02;45269.97;5068477;28;20444;-57
2024/01/30 07:22:31;;;;;;;0.80;0.40;;;;;;;-143.84;89.57;45271.88;5068790;28;20455;-57
2024/01/30 07:24:58;;;;;;;1.27;0.90;;;;;;;-143.84;89.53;45273.78;5068861;28;20918;-57
2024/01/30 07:27:26;;;;;;;0.77;0.47;;;;;;;-143.84;88.96;45275.66;5069105;28;20482;-57
2024/01/30 07:29:53;;;;;;;0.80;0.50;;;;;;;-143.84;89.11;45268.06;5068965;28;20429;-57
2024/01/30 07:32:21;;;;;;;0.90;0.70;;;;;;;-143.84;88.63;45250.91;5068987;28;20456;-57
2024/01/30 07:34:48;;;;;;;0.80;0.50;;;;;;;-143.84;88.21;45266.16;5069054;28;20480;-57
2024/01/30 07:37:16;;;;;;;0.80;0.70;;;;;;;-143.84;88.04;45283.28;5068911;28;20437;-57
2024/01/30 07:39:43;;;;;;;0.93;0.83;;;;;;;-143.84;87.76;45262.34;5068966;28;20441;-57
2024/01/30 07:42:11;;;;;;;0.80;0.70;;;;;;;-143.84;87.73;45271.88;5068648;28;20438;-57
2024/01/30 07:44:38;;;;;;;0.80;0.50;;;;;;;-143.84;87.55;45277.56;5068637;28;20475;-58
2024/01/30 07:47:05;;;;;;;0.80;0.57;;;;;;;-143.84;86.61;45281.38;5068613;28;20441;-57
2024/01/30 07:49:37;;;;;;;0.80;0.60;;;;;;;-143.84;85.88;45275.66;5068657;28;20459;-57
2024/01/30 07:52:06;;;;;;;0.80;0.47;;;;;;;-143.84;85.33;45256.63;5068640;28;20506;-57
2024/01/30 07:54:34;;;;;;;0.80;0.40;;;;;;;-143.84;85.58;45277.56;5068796;28;20488;-57
2024/01/30 07:57:02;;;;;;;1.00;0.90;;;;;;;-143.84;85.51;45258.53;5068554;28;20556;-58
2024/01/30 07:59:29;;;;;;;0.80;0.40;;;;;;;-143.84;84.67;45241.41;5068627;28;20433;-58
2024/01/30 08:01:56;;;;;;;0.80;0.60;;;;;;;-143.84;84.48;45290.91;5068619;28;20437;-57
2024/01/30 08:04:23;;;;;;;1.43;1.33;;;;;;;-143.84;84.42;45256.63;5068752;28;20495;-58
2024/01/30 08:06:51;;;;;;;0.90;0.73;;;;;;;-143.84;83.78;45268.06;5068450;28;20510;-58
2024/01/30 08:09:19;;;;;;;0.80;0.40;;;;;;;-143.84;83.02;45250.91;5068488;28;20491;-58
2024/01/30 08:11:46;;;;;;;0.80;0.50;;;;;;;-143.84;82.70;45252.81;5068138;28;20520;-57
2024/01/30 08:14:13;;;;;;;0.80;0.40;;;;;;;-143.84;81.58;45256.63;5068341;28;20977;-58
2024/01/30 08:16:40;;;;;;;0.80;0.60;;;;;;;-143.84;81.61;45258.53;5068394;28;20437;-58
2024/01/30 08:19:07;;;;;;;1.20;1.10;;;;;;;-143.84;82.07;45241.41;5068560;28;20531;-58
2024/01/30 08:21:36;;;;;;;1.27;1.17;;;;;;;-143.84;82.23;45241.41;5068283;28;20444;-58
2024/01/30 08:24:06;;;;;;;0.80;0.50;;;;;;;-143.84;82.03;45231.88;5068351;28;20953;-58
2024/01/30 08:26:33;;;;;;;1.27;1.17;;;;;;;-143.84;81.24;45247.09;5068230;28;20442;-58
2024/01/30 08:29:00;;;;;;;0.80;0.53;;;;;;;-143.84;80.56;45233.78;5068608;28;20950;-58
2024/01/30 08:31:28;;;;;;;2.90;1.57;;;;;;;-143.84;80.67;45254.72;5072119;28;20498;-58
2024/01/30 08:33:55;;;;;;;0.80;0.50;;;;;;;-143.84;80.92;45292.81;5071921;28;20488;-58
2024/01/30 08:36:22;;;;;;;0.80;0.40;;;;;;;-143.84;80.40;45249.00;5071842;28;20566;-58
2024/01/30 08:38:49;;;;;;;0.80;0.50;;;;;;;-143.84;80.13;45256.63;5072072;28;20433;-58
2024/01/30 08:41:17;;;;;;;0.80;0.70;;;;;;;-143.84;80.41;45229.97;5071848;28;20445;-58
2024/01/30 08:43:45;;;;;;;1.03;0.93;;;;;;;-143.84;80.39;45229.97;5072131;28;20448;-58
2024/01/30 08:46:12;;;;;;;3.03;2.73;;;;;;;-143.84;80.33;45260.44;5072263;28;20518;-58
2024/01/30 08:48:40;;;;;;;0.80;0.50;;;;;;;-143.84;81.02;45271.88;5071721;28;20441;-58
2024/01/30 08:51:08;;;;;;;0.80;0.57;;;;;;;-143.84;80.40;45268.06;5071654;28;20444;-58
2024/01/30 08:53:36;;;;;;;1.23;1.13;;;;;;;-143.84;80.92;45249.00;5071715;28;20893;-58
2024/01/30 08:56:04;;;;;;;0.90;0.70;;;;;;;-143.84;81.01;45249.00;5071746;28;20461;-58
2024/01/30 08:58:33;;;;;;;1.43;1.30;;;;;;;-143.84;80.63;45247.09;5071796;28;20445;-58
2024/01/30 09:01:00;;;;;;;0.80;0.60;;;;;;;-143.84;80.46;45231.88;5071829;28;20919;-58
2024/01/30 09:03:27;;;;;;;1.33;1.23;;;;;;;-143.84;80.55;45229.97;5071532;28;20444;-58
2024/01/30 09:05:54;;;;;;;0.80;0.40;;;;;;;-143.84;79.91;45262.34;5071344;28;20433;-58
2024/01/30 09:08:21;;;;;;;0.80;0.50;;;;;;;-143.84;78.95;45231.88;5071351;28;20524;-58
2024/01/30 09:10:49;;;;;;;0.80;0.70;;;;;;;-143.84;79.23;45224.25;5071137;28;20442;-58
2024/01/30 09:13:16;;;;;;;0.90;0.80;;;;;;;-143.84;78.92;45243.31;5071014;28;20487;-58
2024/01/30 09:15:45;;;;;;;0.80;0.70;;;;;;;-143.84;78.34;45258.53;5071550;28;20428;-58
2024/01/30 09:18:12;;;;;;;1.90;1.57;;;;;;;-143.84;77.63;45254.72;5071265;28;20438;-58
2024/01/30 09:20:39;;;;;;;1.33;0.80;;;;;;;-143.84;77.72;45235.69;5071021;28;20453;-58
2024/01/30 09:23:06;;;;;;;1.00;0.90;;;;;;;-143.84;76.82;45231.88;5071000;28;20447;-58
2024/01/30 09:25:34;;;;;;;1.43;1.07;;;;;;;-143.84;76.94;45250.91;5070915;28;20446;-58
2024/01/30 09:28:01;;;;;;;0.80;0.50;;;;;;;-143.84;77.77;45228.06;5071275;28;20450;-58
2024/01/30 09:30:28;;;;;;;3.20;0.97;;;;;;;-143.84;77.60;45231.88;5071302;28;20557;-58
2024/01/30 09:32:56;;;;;;;1.43;1.33;;;;;;;-143.84;77.66;45247.09;5071116;28;20466;-58
2024/01/30 09:35:24;;;;;;;0.80;0.50;;;;;;;-143.84;77.09;45247.09;5070885;28;20521;-58
2024/01/30 09:37:51;;;;;;;1.67;1.57;;;;;;;-143.84;76.00;45239.50;5071003;28;20514;-58
2024/01/30 09:40:19;;;;;;;0.80;0.50;;;;;;;-143.84;75.86;45231.88;5070574;28;20448;-58
2024/01/30 09:42:48;;;;;;;0.90;0.70;;;;;;;-143.84;75.34;45332.81;5070152;28;20501;-58
2024/01/30 09:45:15;;;;;;;0.80;0.50;;;;;;;-143.84;75.51;45228.06;5070528;28;20451;-58
2024/01/30 09:47:43;;;;;;;0.93;0.73;;;;;;;-143.84;75.55;45233.78;5070506;28;20451;-58
2024/01/30 09:50:13;;;;;;;2.10;1.53;;;;;;;-143.84;75.75;45228.06;5070592;28;20444;-58
2024/01/30 09:52:41;;;;;;;0.80;0.50;;;;;;;-143.84;75.89;45243.31;5070588;28;20512;-58
2024/01/30 09:55:09;;;;;;;0.80;0.40;;;;;;;-143.84;75.64;45243.31;5070519;28;21537;-58
2024/01/30 09:57:37;;;;;;;0.90;0.60;;;;;;;-143.84;76.18;45254.72;5070654;28;20874;-58
2024/01/30 10:00:05;;;;;;;0.93;0.83;;;;;;;-143.84;75.76;45231.88;5070088;28;20456;-58
2024/01/30 10:02:33;;;;;;;0.80;0.60;;;;;;;-143.84;75.55;45228.06;5070203;28;20937;-58
2024/01/30 10:05:01;;;;;;;1.63;1.00;;;;;;;-143.84;76.01;45218.53;5070336;28;20882;-58
2024/01/30 10:07:30;;;;;;;1.90;1.80;;;;;;;-143.84;74.33;45231.88;5070058;28;20440;-58
2024/01/30 10:10:00;;;;;;;0.97;0.70;;;;;;;-143.84;73.76;45239.50;5070260;28;20454;-58
2024/01/30 10:12:28;;;;;;;1.83;0.83;;;;;;;-143.84;74.04;45241.41;5069959;28;20489;-58
2024/01/30 10:14:57;;;;;;;0.80;0.50;;;;;;;-143.84;74.08;45252.81;5069964;28;20477;-58
2024/01/30 10:17:27;;;;;;;0.80;0.60;;;;;;;-143.84;73.97;45243.31;5069868;28;20498;-58
2024/01/30 10:19:54;;;;;;;0.80;0.50;;;;;;;-143.84;74.08;45228.06;5069829;28;20970;-58
2024/01/30 10:22:21;;;;;;;0.80;0.40;;;;;;;-143.84;72.61;45241.41;5069789;28;20501;-58
2024/01/30 10:24:50;;;;;;;0.80;0.40;;;;;;;-143.84;72.50;45262.34;5069999;28;20448;-58
2024/01/30 10:27:18;;;;;;;0.80;0.50;;;;;;;-143.84;73.06;45229.97;5069659;28;20450;-58
2024/01/30 10:29:45;;;;;;;0.80;0.53;;;;;;;-143.84;73.22;45239.50;5069835;28;20438;-58
2024/01/30 10:32:12;;;;;;;1.23;1.03;;;;;;;-143.84;73.78;45241.41;5069484;28;20458;-58
2024/01/30 10:34:39;;;;;;;0.83;0.70;;;;;;;-143.84;74.43;45228.06;5069375;28;20833;-58
2024/01/30 10:37:12;;;;;;;0.90;0.70;;;;;;;-143.84;74.45;45237.59;5069363;28;20435;-58
2024/01/30 10:39:40;;;;;;;0.80;0.50;;;;;;;-143.84;74.03;45224.25;5069361;28;20951;-58
2024/01/30 10:42:13;;;;;;;1.93;1.83;;;;;;;-143.84;74.02;45243.31;5069654;28;20447;-58
2024/01/30 10:44:56;;;;;;;0.93;0.80;;;;;;;-143.84;73.90;45235.69;5069473;28;20573;-58
2024/01/30 10:47:28;;;;;;;1.97;1.87;;;;;;;-143.84;73.25;45262.34;5069657;28;20427;-58
2024/01/30 10:49:56;;;;;;;0.80;0.50;;;;;;;-143.84;73.15;45226.16;5069372;28;20436;-58
2024/01/30 10:52:26;;;;;;;3.40;2.30;;;;;;;-143.84;72.06;45249.00;5068632;28;20444;-58
2024/01/30 10:54:55;;;;;;;0.80;0.40;;;;;;;-143.84;71.91;45216.63;5069009;28;20490;-58
2024/01/30 10:57:24;;;;;;;0.90;0.70;;;;;;;-143.84;71.88;45228.06;5069614;28;20443;-58
2024/01/30 10:59:56;;;;;;;1.23;1.13;;;;;;;-143.84;71.65;45241.41;5069271;28;20444;-58
2024/01/30 11:02:25;;;;;;;1.53;1.20;;;;;;;-143.84;71.51;45247.09;5069106;28;20445;-58
2024/01/30 11:04:58;;;;;;;3.43;1.80;;;;;;;-143.84;71.34;45241.41;5069183;28;20959;-58
2024/01/30 11:07:27;;;;;;;1.23;0.97;;;;;;;-143.84;71.14;45231.88;5069367;28;20433;-58
2024/01/30 11:09:55;;;;;;;1.83;1.13;;;;;;;-143.84;71.14;45226.16;5069040;28;20447;-58
2024/01/30 11:12:27;;;;;;;3.73;0.60;;;;;;;-143.84;71.39;45239.50;5068722;28;20474;-58
2024/01/30 11:15:06;;;;;;;0.90;0.60;;;;;;;-143.84;70.79;45224.25;5069075;28;20491;-58
2024/01/30 11:17:44;;;;;;;0.80;0.60;;;;;;;-143.84;70.29;45216.63;5069010;28;20526;-58
2024/01/30 11:20:14;;;;;;;0.80;0.50;;;;;;;-143.84;70.10;45228.06;5069171;28;20505;-58